Giove Jet — IJNX — position and weather

sailwx.info

Track history (hours):
 
Tides and Currents Weather Stations Pressure Air Temp Water Temp Dewpoint Dewpoint Depression Visibility Wind Speed Wind Dir Waves Ship Positions

Giove Jet

Last reported at 2015-May-27 09:33 UTC. Time now 2015-May-27 09:50 UTC.
Position N 40°38' E 014°23'.

Length 33 m; draft 1.2 m.

MMSI: 247049500.

Date/timePositionNaut miles runAvg speedWind from/ knotsBaromVisibWave heightAir tempDewpointWater temp
2015-May-27 09:33N 40°38' E 014°23'0 0.0
2015-May-27 08:33N 40°38' E 014°23'7 7.5
2015-May-27 07:34N 40°45' E 014°19'1 0.8
2015-May-27 06:33N 40°45' E 014°20'7 7.1
2015-May-27 05:33N 40°38' E 014°23'0 0.0
2015-May-26 17:03N 40°38' E 014°23'814.7
2015-May-26 16:32N 40°33' E 014°14'1613.6
2015-May-26 15:23N 40°49' E 014°17'1011.4
2015-May-26 14:31N 40°40' E 014°22'3 2.6
2015-May-26 13:33N 40°42' E 014°21'9 8.5
2015-May-26 12:32N 40°50' E 014°17'1313.3
2015-May-26 11:34N 40°38' E 014°23'8 7.6
2015-May-26 10:33N 40°33' E 014°14'10 9.4
2015-May-26 09:29N 40°42' E 014°21'8 8.0
2015-May-26 08:31N 40°49' E 014°17'8 8.3
2015-May-26 07:32N 40°41' E 014°20'4 4.2
2015-May-26 06:33N 40°45' E 014°19'13 0.9
2015-May-25 16:31N 40°33' E 014°14'1513.9
2015-May-25 15:26N 40°48' E 014°17'9 9.7
2015-May-25 14:33N 40°41' E 014°22'5 4.6
2015-May-25 13:24N 40°45' E 014°19'5 5.5
2015-May-25 12:31N 40°50' E 014°17'1210.1
2015-May-25 11:19N 40°38' E 014°20'6 8.0
2015-May-25 10:33N 40°33' E 014°14'8 6.1
2015-May-25 09:19N 40°38' E 014°23'0 0.0
2015-May-25 08:32N 40°38' E 014°23'6 5.6
2015-May-25 07:31N 40°43' E 014°20'3 3.0
2015-May-25 06:34N 40°46' E 014°19'8 0.6
2015-May-24 17:10N 40°38' E 014°23'812.0
2015-May-24 16:33N 40°33' E 014°14'1312.9
2015-May-24 15:33N 40°46' E 014°19'6 6.2
2015-May-24 14:32N 40°40' E 014°22'2 1.6
2015-May-24 13:33N 40°41' E 014°22'9 8.9
2015-May-24 12:33N 40°49' E 014°17'1212.0
2015-May-24 11:31N 40°38' E 014°23'8 7.9
2015-May-24 10:33N 40°33' E 014°14'8 8.3
2015-May-24 09:32N 40°40' E 014°22'1110.5
2015-May-24 08:31N 40°50' E 014°17'1111.1
2015-May-24 07:33N 40°40' E 014°22'7 6.7
2015-May-24 06:33N 40°46' E 014°19'9 0.6
2015-May-23 17:03N 40°38' E 014°23'815.2
2015-May-23 16:33N 40°33' E 014°14'1312.9
2015-May-23 15:34N 40°46' E 014°19'8 7.6
2015-May-23 14:33N 40°39' E 014°23'7 6.0
2015-May-23 13:25N 40°45' E 014°20'5 6.0
2015-May-23 12:33N 40°50' E 014°17'1312.8
2015-May-23 11:34N 40°38' E 014°23'8 7.6
2015-May-23 10:33N 40°33' E 014°14'8 8.4
2015-May-23 09:33N 40°40' E 014°22'1110.6
2015-May-23 08:32N 40°50' E 014°17'1111.4
2015-May-23 07:33N 40°40' E 014°22'6 6.3
2015-May-23 06:33N 40°46' E 014°19'8 0.5
2015-May-22 13:33N 40°38' E 014°23'0 0.0
2015-May-22 12:26N 40°38' E 014°23'7 8.3
2015-May-22 11:33N 40°45' E 014°20'0 0.4
2015-May-22 10:33N 40°44' E 014°20'1111.2
2015-May-22 09:33N 40°35' E 014°12'1111.3
2015-May-22 08:34N 40°43' E 014°02'1514.8
2015-May-22 07:33N 40°40' E 014°21'5 5.4
2015-May-22 06:33N 40°45' E 014°19'8 7.6
2015-May-22 05:30N 40°38' E 014°23'8 0.6
2015-May-21 16:32N 40°33' E 014°14'1313.1
2015-May-21 15:33N 40°46' E 014°19'7 6.7
2015-May-21 14:30N 40°39' E 014°22'3 3.0
2015-May-21 13:33N 40°42' E 014°21'9 8.7
2015-May-21 12:32N 40°50' E 014°17'1313.2
2015-May-21 11:33N 40°38' E 014°23'8 7.4
2015-May-21 10:32N 40°33' E 014°14'9 8.8
2015-May-21 09:33N 40°40' E 014°22'1010.1
2015-May-21 08:33N 40°50' E 014°17'1010.4
2015-May-21 07:33N 40°40' E 014°22'6 6.0
2015-May-21 06:33N 40°45' E 014°19'8 7.4
2015-May-21 05:28N 40°38' E 014°23'0 0.0
2015-May-20 17:16N 40°38' E 014°23'7 9.2
2015-May-20 16:28N 40°34' E 014°15'11 3.7
2015-May-20 13:30N 40°44' E 014°20'7 7.0
2015-May-20 12:33N 40°50' E 014°17'1313.0
2015-May-20 11:33N 40°38' E 014°23'7 7.0
2015-May-20 10:33N 40°34' E 014°15'1010.3
2015-May-20 09:33N 40°43' E 014°19'4 4.4
2015-May-20 08:32N 40°48' E 014°18'7 7.5
2015-May-20 07:32N 40°41' E 014°21'3 2.7
2015-May-20 06:30N 40°44' E 014°20'6 0.5
2015-May-19 17:13N 40°38' E 014°23'811.4
2015-May-19 16:33N 40°33' E 014°14'1413.4
2015-May-19 15:33N 40°47' E 014°19'7 7.2
2015-May-19 14:33N 40°40' E 014°22'2 2.3
2015-May-19 13:34N 40°42' E 014°21'9 8.5
2015-May-19 12:31N 40°50' E 014°17'1313.2
2015-May-19 11:32N 40°38' E 014°23'8 7.7
2015-May-19 10:33N 40°33' E 014°14'9 8.9
2015-May-19 09:33N 40°40' E 014°22'8 8.3
2015-May-19 08:33N 40°48' E 014°18'8 8.4
2015-May-19 07:33N 40°40' E 014°22'6 5.6
2015-May-19 06:33N 40°45' E 014°19'8 7.8
2015-May-19 05:31N 40°38' E 014°23'0 0.0
2015-May-18 17:11N 40°38' E 014°23'811.7
2015-May-18 16:32N 40°33' E 014°14'1212.6
2015-May-18 15:33N 40°45' E 014°19'6 6.4
2015-May-18 14:33N 40°40' E 014°22'2 1.5
2015-May-18 13:33N 40°41' E 014°22'10 9.5
2015-May-18 12:32N 40°50' E 014°17'1312.8
2015-May-18 11:31N 40°38' E 014°23'8 7.9
2015-May-18 10:33N 40°33' E 014°14'10 9.5
2015-May-18 09:33N 40°42' E 014°21'8 8.1
2015-May-18 08:33N 40°50' E 014°17'1110.8
2015-May-18 07:33N 40°39' E 014°22'7 6.7
2015-May-18 06:33N 40°46' E 014°19'8 8.4
2015-May-18 05:33N 40°38' E 014°23'8 0.6
2015-May-17 16:33N 40°33' E 014°14'1413.4
2015-May-17 15:30N 40°47' E 014°18'8 8.5
2015-May-17 14:34N 40°40' E 014°22'2 1.6
2015-May-17 13:33N 40°41' E 014°21'9 9.1
2015-May-17 12:32N 40°50' E 014°17'1312.7
2015-May-17 11:31N 40°38' E 014°23'8 7.7
2015-May-17 10:32N 40°33' E 014°14'  
Track history (hours):
 
Tides and Currents Weather Stations Pressure Air Temp Water Temp Dewpoint Dewpoint Depression Visibility Wind Speed Wind Dir Waves Ship Positions

Giove Jet

Last reported at 2015-May-27 09:33 UTC. Time now 2015-May-27 09:50 UTC.
Position N 40°38' E 014°23'.

Length 33 m; draft 1.2 m.

MMSI: 247049500.

Date/timePositionNaut miles runAvg speedWind from/ knotsBaromVisibWave heightAir tempDewpointWater temp
2015-May-27 09:33N 40°38' E 014°23'0 0.0
2015-May-27 08:33N 40°38' E 014°23'7 7.5
2015-May-27 07:34N 40°45' E 014°19'1 0.8
2015-May-27 06:33N 40°45' E 014°20'7 7.1
2015-May-27 05:33N 40°38' E 014°23'0 0.0
2015-May-26 17:03N 40°38' E 014°23'814.7
2015-May-26 16:32N 40°33' E 014°14'1613.6
2015-May-26 15:23N 40°49' E 014°17'1011.4
2015-May-26 14:31N 40°40' E 014°22'3 2.6
2015-May-26 13:33N 40°42' E 014°21'9 8.5
2015-May-26 12:32N 40°50' E 014°17'1313.3
2015-May-26 11:34N 40°38' E 014°23'8 7.6
2015-May-26 10:33N 40°33' E 014°14'10 9.4
2015-May-26 09:29N 40°42' E 014°21'8 8.0
2015-May-26 08:31N 40°49' E 014°17'8 8.3
2015-May-26 07:32N 40°41' E 014°20'4 4.2
2015-May-26 06:33N 40°45' E 014°19'13 0.9
2015-May-25 16:31N 40°33' E 014°14'1513.9
2015-May-25 15:26N 40°48' E 014°17'9 9.7
2015-May-25 14:33N 40°41' E 014°22'5 4.6
2015-May-25 13:24N 40°45' E 014°19'5 5.5
2015-May-25 12:31N 40°50' E 014°17'1210.1
2015-May-25 11:19N 40°38' E 014°20'6 8.0
2015-May-25 10:33N 40°33' E 014°14'8 6.1
2015-May-25 09:19N 40°38' E 014°23'0 0.0
2015-May-25 08:32N 40°38' E 014°23'6 5.6
2015-May-25 07:31N 40°43' E 014°20'3 3.0
2015-May-25 06:34N 40°46' E 014°19'8 0.6
2015-May-24 17:10N 40°38' E 014°23'812.0
2015-May-24 16:33N 40°33' E 014°14'1312.9
2015-May-24 15:33N 40°46' E 014°19'6 6.2
2015-May-24 14:32N 40°40' E 014°22'2 1.6
2015-May-24 13:33N 40°41' E 014°22'9 8.9
2015-May-24 12:33N 40°49' E 014°17'1212.0
2015-May-24 11:31N 40°38' E 014°23'8 7.9
2015-May-24 10:33N 40°33' E 014°14'8 8.3
2015-May-24 09:32N 40°40' E 014°22'1110.5
2015-May-24 08:31N 40°50' E 014°17'1111.1
2015-May-24 07:33N 40°40' E 014°22'7 6.7
2015-May-24 06:33N 40°46' E 014°19'9 0.6
2015-May-23 17:03N 40°38' E 014°23'815.2
2015-May-23 16:33N 40°33' E 014°14'1312.9
2015-May-23 15:34N 40°46' E 014°19'8 7.6
2015-May-23 14:33N 40°39' E 014°23'7 6.0
2015-May-23 13:25N 40°45' E 014°20'5 6.0
2015-May-23 12:33N 40°50' E 014°17'1312.8
2015-May-23 11:34N 40°38' E 014°23'8 7.6
2015-May-23 10:33N 40°33' E 014°14'8 8.4
2015-May-23 09:33N 40°40' E 014°22'1110.6
2015-May-23 08:32N 40°50' E 014°17'1111.4
2015-May-23 07:33N 40°40' E 014°22'6 6.3
2015-May-23 06:33N 40°46' E 014°19'8 0.5
2015-May-22 13:33N 40°38' E 014°23'0 0.0
2015-May-22 12:26N 40°38' E 014°23'7 8.3
2015-May-22 11:33N 40°45' E 014°20'0 0.4
2015-May-22 10:33N 40°44' E 014°20'1111.2
2015-May-22 09:33N 40°35' E 014°12'1111.3
2015-May-22 08:34N 40°43' E 014°02'1514.8
2015-May-22 07:33N 40°40' E 014°21'5 5.4
2015-May-22 06:33N 40°45' E 014°19'8 7.6
2015-May-22 05:30N 40°38' E 014°23'8 0.6
2015-May-21 16:32N 40°33' E 014°14'1313.1
2015-May-21 15:33N 40°46' E 014°19'7 6.7
2015-May-21 14:30N 40°39' E 014°22'3 3.0
2015-May-21 13:33N 40°42' E 014°21'9 8.7
2015-May-21 12:32N 40°50' E 014°17'1313.2
2015-May-21 11:33N 40°38' E 014°23'8 7.4
2015-May-21 10:32N 40°33' E 014°14'9 8.8
2015-May-21 09:33N 40°40' E 014°22'1010.1
2015-May-21 08:33N 40°50' E 014°17'1010.4
2015-May-21 07:33N 40°40' E 014°22'6 6.0
2015-May-21 06:33N 40°45' E 014°19'8 7.4
2015-May-21 05:28N 40°38' E 014°23'0 0.0
2015-May-20 17:16N 40°38' E 014°23'7 9.2
2015-May-20 16:28N 40°34' E 014°15'11 3.7
2015-May-20 13:30N 40°44' E 014°20'7 7.0
2015-May-20 12:33N 40°50' E 014°17'1313.0
2015-May-20 11:33N 40°38' E 014°23'7 7.0
2015-May-20 10:33N 40°34' E 014°15'1010.3
2015-May-20 09:33N 40°43' E 014°19'4 4.4
2015-May-20 08:32N 40°48' E 014°18'7 7.5
2015-May-20 07:32N 40°41' E 014°21'3 2.7
2015-May-20 06:30N 40°44' E 014°20'6 0.5
2015-May-19 17:13N 40°38' E 014°23'811.4
2015-May-19 16:33N 40°33' E 014°14'1413.4
2015-May-19 15:33N 40°47' E 014°19'7 7.2
2015-May-19 14:33N 40°40' E 014°22'2 2.3
2015-May-19 13:34N 40°42' E 014°21'9 8.5
2015-May-19 12:31N 40°50' E 014°17'1313.2
2015-May-19 11:32N 40°38' E 014°23'8 7.7
2015-May-19 10:33N 40°33' E 014°14'9 8.9
2015-May-19 09:33N 40°40' E 014°22'8 8.3
2015-May-19 08:33N 40°48' E 014°18'8 8.4
2015-May-19 07:33N 40°40' E 014°22'6 5.6
2015-May-19 06:33N 40°45' E 014°19'8 7.8
2015-May-19 05:31N 40°38' E 014°23'0 0.0
2015-May-18 17:11N 40°38' E 014°23'811.7
2015-May-18 16:32N 40°33' E 014°14'1212.6
2015-May-18 15:33N 40°45' E 014°19'6 6.4
2015-May-18 14:33N 40°40' E 014°22'2 1.5
2015-May-18 13:33N 40°41' E 014°22'10 9.5
2015-May-18 12:32N 40°50' E 014°17'1312.8
2015-May-18 11:31N 40°38' E 014°23'8 7.9
2015-May-18 10:33N 40°33' E 014°14'10 9.5
2015-May-18 09:33N 40°42' E 014°21'8 8.1
2015-May-18 08:33N 40°50' E 014°17'1110.8
2015-May-18 07:33N 40°39' E 014°22'7 6.7
2015-May-18 06:33N 40°46' E 014°19'8 8.4
2015-May-18 05:33N 40°38' E 014°23'8 0.6
2015-May-17 16:33N 40°33' E 014°14'1413.4
2015-May-17 15:30N 40°47' E 014°18'8 8.5
2015-May-17 14:34N 40°40' E 014°22'2 1.6
2015-May-17 13:33N 40°41' E 014°21'9 9.1
2015-May-17 12:32N 40°50' E 014°17'1312.7
2015-May-17 11:31N 40°38' E 014°23'8 7.7
2015-May-17 10:32N 40°33' E 014°14'  

Dump ship's entire track history